sensor_id;sensor_type;location;lat;lon;timestamp;temperature;humidity
20418;DHT22;10368;51.436;6.774;2022-10-17T00:01:53;15.90;99.90
20418;DHT22;10368;51.436;6.774;2022-10-17T00:04:20;15.90;99.90
20418;DHT22;10368;51.436;6.774;2022-10-17T00:06:47;15.90;99.90
20418;DHT22;10368;51.436;6.774;2022-10-17T00:09:14;15.90;99.90
20418;DHT22;10368;51.436;6.774;2022-10-17T00:11:41;15.90;99.90
20418;DHT22;10368;51.436;6.774;2022-10-17T00:14:08;15.90;99.90
20418;DHT22;10368;51.436;6.774;2022-10-17T00:16:35;15.90;99.90
20418;DHT22;10368;51.436;6.774;2022-10-17T00:19:04;15.90;99.90
20418;DHT22;10368;51.436;6.774;2022-10-17T00:21:32;15.90;99.90
20418;DHT22;10368;51.436;6.774;2022-10-17T00:23:59;15.90;99.90
20418;DHT22;10368;51.436;6.774;2022-10-17T00:26:27;15.90;99.90
20418;DHT22;10368;51.436;6.774;2022-10-17T00:28:58;15.80;99.90
20418;DHT22;10368;51.436;6.774;2022-10-17T00:31:25;15.80;99.90
20418;DHT22;10368;51.436;6.774;2022-10-17T00:33:51;15.80;99.90
20418;DHT22;10368;51.436;6.774;2022-10-17T00:36:22;15.80;99.90
20418;DHT22;10368;51.436;6.774;2022-10-17T00:38:56;15.80;99.90
20418;DHT22;10368;51.436;6.774;2022-10-17T00:41:27;15.90;99.90
20418;DHT22;10368;51.436;6.774;2022-10-17T00:43:58;15.90;99.90
20418;DHT22;10368;51.436;6.774;2022-10-17T00:46:31;15.90;99.90
20418;DHT22;10368;51.436;6.774;2022-10-17T00:49:03;15.90;99.90
20418;DHT22;10368;51.436;6.774;2022-10-17T00:51:40;15.90;99.90
20418;DHT22;10368;51.436;6.774;2022-10-17T00:54:10;15.90;99.90
20418;DHT22;10368;51.436;6.774;2022-10-17T00:56:38;16.00;99.90
20418;DHT22;10368;51.436;6.774;2022-10-17T00:59:10;16.00;99.90
20418;DHT22;10368;51.436;6.774;2022-10-17T01:01:39;16.00;99.90
20418;DHT22;10368;51.436;6.774;2022-10-17T01:04:07;16.00;99.90
20418;DHT22;10368;51.436;6.774;2022-10-17T01:06:35;16.00;99.90
20418;DHT22;10368;51.436;6.774;2022-10-17T01:09:02;16.00;99.90
20418;DHT22;10368;51.436;6.774;2022-10-17T01:14:11;16.00;99.90
20418;DHT22;10368;51.436;6.774;2022-10-17T01:16:57;16.00;99.90
20418;DHT22;10368;51.436;6.774;2022-10-17T01:22:07;16.10;99.90
20418;DHT22;10368;51.436;6.774;2022-10-17T01:28:08;16.10;99.90
20418;DHT22;10368;51.436;6.774;2022-10-17T01:36:14;16.10;99.90
20418;DHT22;10368;51.436;6.774;2022-10-17T01:38:52;16.20;99.90
20418;DHT22;10368;51.436;6.774;2022-10-17T01:43:58;16.20;99.90
20418;DHT22;10368;51.436;6.774;2022-10-17T01:46:41;16.20;99.90
20418;DHT22;10368;51.436;6.774;2022-10-17T01:49:11;16.20;99.90
20418;DHT22;10368;51.436;6.774;2022-10-17T01:51:48;16.30;99.90
20418;DHT22;10368;51.436;6.774;2022-10-17T01:54:22;16.20;99.90
20418;DHT22;10368;51.436;6.774;2022-10-17T01:56:54;16.30;99.90
20418;DHT22;10368;51.436;6.774;2022-10-17T01:59:26;16.40;99.90
20418;DHT22;10368;51.436;6.774;2022-10-17T02:01:56;16.40;99.90
20418;DHT22;10368;51.436;6.774;2022-10-17T02:04:24;16.40;99.90
20418;DHT22;10368;51.436;6.774;2022-10-17T02:06:51;16.40;99.90
20418;DHT22;10368;51.436;6.774;2022-10-17T02:09:25;16.40;99.90
20418;DHT22;10368;51.436;6.774;2022-10-17T02:20:44;16.50;99.90
20418;DHT22;10368;51.436;6.774;2022-10-17T02:31:28;16.50;99.90
20418;DHT22;10368;51.436;6.774;2022-10-17T02:34:08;16.50;99.90
20418;DHT22;10368;51.436;6.774;2022-10-17T02:36:49;16.50;99.90
20418;DHT22;10368;51.436;6.774;2022-10-17T02:39:17;16.40;99.90
20418;DHT22;10368;51.436;6.774;2022-10-17T02:41:47;16.40;99.90
20418;DHT22;10368;51.436;6.774;2022-10-17T02:44:15;16.40;99.90
20418;DHT22;10368;51.436;6.774;2022-10-17T02:46:44;16.50;99.90
20418;DHT22;10368;51.436;6.774;2022-10-17T02:49:26;16.50;99.90
20418;DHT22;10368;51.436;6.774;2022-10-17T02:52:01;16.50;99.90
20418;DHT22;10368;51.436;6.774;2022-10-17T02:57:41;16.50;99.90
20418;DHT22;10368;51.436;6.774;2022-10-17T03:00:12;16.60;99.90
20418;DHT22;10368;51.436;6.774;2022-10-17T03:02:45;16.60;99.90
20418;DHT22;10368;51.436;6.774;2022-10-17T03:07:46;16.60;99.90
20418;DHT22;10368;51.436;6.774;2022-10-17T03:10:13;16.60;99.90
20418;DHT22;10368;51.436;6.774;2022-10-17T03:12:40;16.60;99.90
20418;DHT22;10368;51.436;6.774;2022-10-17T03:15:09;16.80;99.90
20418;DHT22;10368;51.436;6.774;2022-10-17T03:17:37;16.70;99.90
20418;DHT22;10368;51.436;6.774;2022-10-17T03:20:05;16.60;99.90
20418;DHT22;10368;51.436;6.774;2022-10-17T03:22:33;16.70;99.90
20418;DHT22;10368;51.436;6.774;2022-10-17T03:24:59;16.70;99.90
20418;DHT22;10368;51.436;6.774;2022-10-17T03:27:26;16.70;99.90
20418;DHT22;10368;51.436;6.774;2022-10-17T03:29:53;16.70;99.90
20418;DHT22;10368;51.436;6.774;2022-10-17T03:32:20;16.70;99.90
20418;DHT22;10368;51.436;6.774;2022-10-17T03:34:47;16.70;99.90
20418;DHT22;10368;51.436;6.774;2022-10-17T03:37:14;16.80;99.90
20418;DHT22;10368;51.436;6.774;2022-10-17T03:39:41;16.80;99.90
20418;DHT22;10368;51.436;6.774;2022-10-17T03:42:08;16.80;99.90
20418;DHT22;10368;51.436;6.774;2022-10-17T03:44:35;16.70;99.90
20418;DHT22;10368;51.436;6.774;2022-10-17T03:47:02;16.70;99.90
20418;DHT22;10368;51.436;6.774;2022-10-17T03:49:28;16.80;99.90
20418;DHT22;10368;51.436;6.774;2022-10-17T03:51:55;16.70;99.90
20418;DHT22;10368;51.436;6.774;2022-10-17T03:54:22;16.70;99.90
20418;DHT22;10368;51.436;6.774;2022-10-17T03:56:49;16.70;99.90
20418;DHT22;10368;51.436;6.774;2022-10-17T03:59:16;16.70;99.90
20418;DHT22;10368;51.436;6.774;2022-10-17T04:01:43;16.70;99.90
20418;DHT22;10368;51.436;6.774;2022-10-17T04:04:12;16.80;99.90
20418;DHT22;10368;51.436;6.774;2022-10-17T04:06:39;16.70;99.90
20418;DHT22;10368;51.436;6.774;2022-10-17T04:09:06;16.70;99.90
20418;DHT22;10368;51.436;6.774;2022-10-17T04:11:33;16.80;99.90
20418;DHT22;10368;51.436;6.774;2022-10-17T04:14:01;16.80;99.90
20418;DHT22;10368;51.436;6.774;2022-10-17T04:16:28;16.80;99.90
20418;DHT22;10368;51.436;6.774;2022-10-17T04:19:04;16.80;99.90
20418;DHT22;10368;51.436;6.774;2022-10-17T04:21:31;16.80;99.90
20418;DHT22;10368;51.436;6.774;2022-10-17T04:23:59;16.80;99.90
20418;DHT22;10368;51.436;6.774;2022-10-17T04:26:26;16.80;99.90
20418;DHT22;10368;51.436;6.774;2022-10-17T04:28:53;16.90;99.90
20418;DHT22;10368;51.436;6.774;2022-10-17T04:31:20;16.90;99.90
20418;DHT22;10368;51.436;6.774;2022-10-17T04:33:49;16.90;99.90
20418;DHT22;10368;51.436;6.774;2022-10-17T04:36:18;16.90;99.90
20418;DHT22;10368;51.436;6.774;2022-10-17T04:38:45;16.90;99.90
20418;DHT22;10368;51.436;6.774;2022-10-17T04:41:14;16.90;99.90
20418;DHT22;10368;51.436;6.774;2022-10-17T04:43:42;16.90;99.90
20418;DHT22;10368;51.436;6.774;2022-10-17T04:46:15;16.80;99.90
20418;DHT22;10368;51.436;6.774;2022-10-17T04:48:42;16.90;99.90
20418;DHT22;10368;51.436;6.774;2022-10-17T04:51:14;16.90;99.90
20418;DHT22;10368;51.436;6.774;2022-10-17T04:53:42;16.90;99.90
20418;DHT22;10368;51.436;6.774;2022-10-17T04:56:18;16.90;99.90
20418;DHT22;10368;51.436;6.774;2022-10-17T04:58:46;16.90;99.90
20418;DHT22;10368;51.436;6.774;2022-10-17T05:01:20;16.90;99.90
20418;DHT22;10368;51.436;6.774;2022-10-17T05:03:47;16.90;99.90
20418;DHT22;10368;51.436;6.774;2022-10-17T05:06:17;16.90;99.90
20418;DHT22;10368;51.436;6.774;2022-10-17T05:08:44;17.00;99.90
20418;DHT22;10368;51.436;6.774;2022-10-17T05:11:22;16.90;99.90
20418;DHT22;10368;51.436;6.774;2022-10-17T05:13:59;17.00;99.90
20418;DHT22;10368;51.436;6.774;2022-10-17T05:16:27;17.00;99.90
20418;DHT22;10368;51.436;6.774;2022-10-17T05:18:56;16.90;99.90
20418;DHT22;10368;51.436;6.774;2022-10-17T05:21:24;16.90;99.90
20418;DHT22;10368;51.436;6.774;2022-10-17T05:23:51;17.00;99.90
20418;DHT22;10368;51.436;6.774;2022-10-17T05:26:19;16.90;99.90
20418;DHT22;10368;51.436;6.774;2022-10-17T05:28:46;16.90;99.90
20418;DHT22;10368;51.436;6.774;2022-10-17T05:31:14;17.00;99.90
20418;DHT22;10368;51.436;6.774;2022-10-17T05:33:41;16.90;99.90
20418;DHT22;10368;51.436;6.774;2022-10-17T05:36:08;16.90;99.90
20418;DHT22;10368;51.436;6.774;2022-10-17T05:38:35;16.90;99.90
20418;DHT22;10368;51.436;6.774;2022-10-17T05:41:04;16.90;99.90
20418;DHT22;10368;51.436;6.774;2022-10-17T05:43:32;16.90;99.90
20418;DHT22;10368;51.436;6.774;2022-10-17T05:46:02;17.00;99.90
20418;DHT22;10368;51.436;6.774;2022-10-17T05:48:29;17.00;99.90
20418;DHT22;10368;51.436;6.774;2022-10-17T05:51:07;17.00;99.90
20418;DHT22;10368;51.436;6.774;2022-10-17T05:53:37;17.00;99.90
20418;DHT22;10368;51.436;6.774;2022-10-17T05:56:06;17.00;99.90
20418;DHT22;10368;51.436;6.774;2022-10-17T05:58:33;17.00;99.90
20418;DHT22;10368;51.436;6.774;2022-10-17T06:01:18;17.00;99.90
20418;DHT22;10368;51.436;6.774;2022-10-17T06:03:45;16.90;99.90
20418;DHT22;10368;51.436;6.774;2022-10-17T06:06:13;17.00;99.90
20418;DHT22;10368;51.436;6.774;2022-10-17T06:08:41;17.00;99.90
20418;DHT22;10368;51.436;6.774;2022-10-17T06:11:08;17.00;99.90
20418;DHT22;10368;51.436;6.774;2022-10-17T06:13:37;17.00;99.90
20418;DHT22;10368;51.436;6.774;2022-10-17T06:16:04;17.00;99.90
20418;DHT22;10368;51.436;6.774;2022-10-17T06:18:32;17.10;99.90
20418;DHT22;10368;51.436;6.774;2022-10-17T06:21:07;17.00;99.90
20418;DHT22;10368;51.436;6.774;2022-10-17T06:23:34;17.00;99.90
20418;DHT22;10368;51.436;6.774;2022-10-17T06:26:03;17.00;99.90
20418;DHT22;10368;51.436;6.774;2022-10-17T06:28:31;17.00;99.90
20418;DHT22;10368;51.436;6.774;2022-10-17T06:30:58;17.00;99.90
20418;DHT22;10368;51.436;6.774;2022-10-17T06:33:25;17.00;99.90
20418;DHT22;10368;51.436;6.774;2022-10-17T06:35:53;17.10;99.90
20418;DHT22;10368;51.436;6.774;2022-10-17T06:38:20;17.10;99.90
20418;DHT22;10368;51.436;6.774;2022-10-17T06:40:47;17.10;99.90
20418;DHT22;10368;51.436;6.774;2022-10-17T06:43:15;17.10;99.90
20418;DHT22;10368;51.436;6.774;2022-10-17T06:45:41;17.10;99.90
20418;DHT22;10368;51.436;6.774;2022-10-17T06:48:08;17.10;99.90
20418;DHT22;10368;51.436;6.774;2022-10-17T06:50:35;17.10;99.90
20418;DHT22;10368;51.436;6.774;2022-10-17T06:53:02;17.10;99.90
20418;DHT22;10368;51.436;6.774;2022-10-17T06:55:30;17.20;99.90
20418;DHT22;10368;51.436;6.774;2022-10-17T06:57:57;17.20;99.90
20418;DHT22;10368;51.436;6.774;2022-10-17T07:00:24;17.20;99.90
20418;DHT22;10368;51.436;6.774;2022-10-17T07:02:52;17.20;99.90
20418;DHT22;10368;51.436;6.774;2022-10-17T07:05:19;17.30;99.90
20418;DHT22;10368;51.436;6.774;2022-10-17T07:07:46;17.30;99.90
20418;DHT22;10368;51.436;6.774;2022-10-17T07:10:17;17.30;99.90
20418;DHT22;10368;51.436;6.774;2022-10-17T07:12:44;17.30;99.90
20418;DHT22;10368;51.436;6.774;2022-10-17T07:15:11;17.40;99.90
20418;DHT22;10368;51.436;6.774;2022-10-17T07:17:38;17.30;99.90
20418;DHT22;10368;51.436;6.774;2022-10-17T07:20:06;17.30;99.90
20418;DHT22;10368;51.436;6.774;2022-10-17T07:22:33;17.40;99.90
20418;DHT22;10368;51.436;6.774;2022-10-17T07:24:59;17.40;99.90
20418;DHT22;10368;51.436;6.774;2022-10-17T07:27:26;17.40;99.90
20418;DHT22;10368;51.436;6.774;2022-10-17T07:29:54;17.40;99.90
20418;DHT22;10368;51.436;6.774;2022-10-17T07:32:20;17.50;99.90
20418;DHT22;10368;51.436;6.774;2022-10-17T07:34:47;17.50;99.90
20418;DHT22;10368;51.436;6.774;2022-10-17T07:37:14;17.50;99.90
20418;DHT22;10368;51.436;6.774;2022-10-17T07:39:41;17.60;99.90
20418;DHT22;10368;51.436;6.774;2022-10-17T07:42:08;17.70;99.90
20418;DHT22;10368;51.436;6.774;2022-10-17T07:44:37;17.80;99.90
20418;DHT22;10368;51.436;6.774;2022-10-17T07:47:04;17.80;99.90
20418;DHT22;10368;51.436;6.774;2022-10-17T07:49:31;17.80;99.90
20418;DHT22;10368;51.436;6.774;2022-10-17T07:51:58;17.80;99.90
20418;DHT22;10368;51.436;6.774;2022-10-17T07:54:24;17.80;99.90
20418;DHT22;10368;51.436;6.774;2022-10-17T07:56:51;17.90;99.90
20418;DHT22;10368;51.436;6.774;2022-10-17T07:59:18;17.90;99.90
20418;DHT22;10368;51.436;6.774;2022-10-17T08:01:45;17.90;99.90
20418;DHT22;10368;51.436;6.774;2022-10-17T08:04:12;18.00;99.90
20418;DHT22;10368;51.436;6.774;2022-10-17T08:06:39;18.10;99.90
20418;DHT22;10368;51.436;6.774;2022-10-17T08:09:06;18.10;99.90
20418;DHT22;10368;51.436;6.774;2022-10-17T08:11:33;18.20;99.90
20418;DHT22;10368;51.436;6.774;2022-10-17T08:14:01;18.20;99.90
20418;DHT22;10368;51.436;6.774;2022-10-17T08:16:28;18.20;99.90
20418;DHT22;10368;51.436;6.774;2022-10-17T08:18:55;18.20;99.90
20418;DHT22;10368;51.436;6.774;2022-10-17T08:21:22;18.30;99.90
20418;DHT22;10368;51.436;6.774;2022-10-17T08:23:49;18.40;99.90
20418;DHT22;10368;51.436;6.774;2022-10-17T08:26:16;18.40;99.90
20418;DHT22;10368;51.436;6.774;2022-10-17T08:28:43;18.50;99.90
20418;DHT22;10368;51.436;6.774;2022-10-17T08:31:12;18.50;99.90
20418;DHT22;10368;51.436;6.774;2022-10-17T08:33:40;18.60;99.90
20418;DHT22;10368;51.436;6.774;2022-10-17T08:36:08;18.60;99.90
20418;DHT22;10368;51.436;6.774;2022-10-17T08:38:36;18.60;99.90
20418;DHT22;10368;51.436;6.774;2022-10-17T08:41:26;18.70;99.90
20418;DHT22;10368;51.436;6.774;2022-10-17T08:46:36;18.70;99.90
20418;DHT22;10368;51.436;6.774;2022-10-17T08:49:21;18.70;99.90
20418;DHT22;10368;51.436;6.774;2022-10-17T08:51:57;18.80;99.90
20418;DHT22;10368;51.436;6.774;2022-10-17T08:54:40;18.90;99.90
20418;DHT22;10368;51.436;6.774;2022-10-17T08:57:11;18.90;99.90
20418;DHT22;10368;51.436;6.774;2022-10-17T08:59:39;19.00;99.90
20418;DHT22;10368;51.436;6.774;2022-10-17T09:04:48;19.00;99.90
